createdAt,value
2019-05-23T00:00:57.716Z,15.40
2019-05-23T00:06:10.481Z,15.30
2019-05-23T00:11:32.992Z,15.20
2019-05-23T00:16:38.477Z,15.10
2019-05-23T00:21:43.106Z,14.90
2019-05-23T00:26:48.528Z,14.80
2019-05-23T00:31:59.635Z,14.80
2019-05-23T00:37:09.134Z,14.80
2019-05-23T00:42:13.755Z,14.80
2019-05-23T00:47:19.775Z,14.80
2019-05-23T00:52:24.467Z,14.70
2019-05-23T00:57:29.295Z,14.60
2019-05-23T01:02:34.599Z,14.50
2019-05-23T01:07:40.415Z,14.50
2019-05-23T01:12:47.362Z,14.40
2019-05-23T01:17:53.683Z,14.20
2019-05-23T01:23:00.172Z,14.20
2019-05-23T01:28:04.471Z,14.10
2019-05-23T01:33:10.408Z,14.10
2019-05-23T01:38:16.210Z,14.10
2019-05-23T01:43:21.149Z,13.90
2019-05-23T01:48:25.771Z,13.90
2019-05-23T01:53:30.616Z,13.70
2019-05-23T01:58:35.177Z,13.70
2019-05-23T02:03:41.341Z,13.70
2019-05-23T02:08:45.776Z,13.40
2019-05-23T02:13:50.059Z,13.40
2019-05-23T02:18:55.083Z,13.40
2019-05-23T02:24:00.527Z,13.40
2019-05-23T02:29:04.984Z,13.30
2019-05-23T02:34:09.494Z,13.20
2019-05-23T02:39:39.115Z,13.20
2019-05-23T02:44:44.987Z,13.10
2019-05-23T02:49:52.171Z,12.90
2019-05-23T02:54:56.712Z,12.70
2019-05-23T03:00:13.700Z,12.70
2019-05-23T03:05:21.607Z,12.80
2019-05-23T03:10:28.281Z,12.60
2019-05-23T03:15:34.796Z,12.50
2019-05-23T03:20:40.186Z,12.40
2019-05-23T03:26:24.012Z,12.30
2019-05-23T03:31:37.349Z,12.40
2019-05-23T03:36:43.312Z,12.30
2019-05-23T03:41:48.203Z,12.30
2019-05-23T03:46:55.150Z,12.20
2019-05-23T03:52:01.138Z,12.30
2019-05-23T03:57:05.609Z,12.40
2019-05-23T04:02:12.446Z,12.40
2019-05-23T04:07:17.467Z,12.40
2019-05-23T04:12:22.339Z,12.30
2019-05-23T04:17:26.666Z,12.30
2019-05-23T04:22:31.371Z,12.40
2019-05-23T04:27:35.791Z,12.40
2019-05-23T04:32:41.047Z,12.30
2019-05-23T04:37:47.192Z,12.50
2019-05-23T04:42:51.807Z,12.50
2019-05-23T04:47:56.365Z,12.60
2019-05-23T04:53:01.260Z,12.70
2019-05-23T04:58:06.443Z,12.70
2019-05-23T05:03:11.489Z,12.70
2019-05-23T05:08:16.304Z,12.70
2019-05-23T05:13:20.748Z,12.70
2019-05-23T05:18:26.104Z,12.80
2019-05-23T05:23:30.470Z,13.10
2019-05-23T05:28:35.151Z,13.10
2019-05-23T05:33:39.551Z,13.20
2019-05-23T05:38:44.599Z,13.40
2019-05-23T05:43:49.247Z,13.50
2019-05-23T05:48:54.189Z,13.60
2019-05-23T05:53:59.877Z,13.80
2019-05-23T05:59:04.375Z,14.00
2019-05-23T06:04:11.654Z,14.10
2019-05-23T06:09:21.170Z,14.30
2019-05-23T06:14:25.596Z,14.40
2019-05-23T06:19:31.057Z,14.60
2019-05-23T06:24:44.612Z,14.80
2019-05-23T06:29:41.461Z,15.00
2019-05-23T06:34:45.784Z,15.30
2019-05-23T06:39:51.672Z,15.50
2019-05-23T06:44:56.403Z,15.80
2019-05-23T06:50:01.025Z,15.90
2019-05-23T06:55:05.604Z,16.10
2019-05-23T07:00:10.351Z,16.30
2019-05-23T07:05:18.223Z,16.40
2019-05-23T07:10:23.029Z,16.50
2019-05-23T07:15:29.170Z,16.60
2019-05-23T07:20:33.479Z,16.80
2019-05-23T07:25:38.647Z,16.70
2019-05-23T07:30:42.979Z,16.60
2019-05-23T07:35:47.520Z,16.80
2019-05-23T07:40:52.165Z,16.90
2019-05-23T07:45:57.740Z,17.10
2019-05-23T07:51:02.520Z,17.10
2019-05-23T07:56:08.952Z,17.20
2019-05-23T08:01:15.260Z,17.30
2019-05-23T08:06:19.916Z,17.50
2019-05-23T08:11:24.322Z,17.60
2019-05-23T08:16:28.773Z,17.70
2019-05-23T08:21:33.371Z,17.80
2019-05-23T08:26:39.036Z,18.00
2019-05-23T08:31:43.372Z,18.20
2019-05-23T08:36:47.851Z,18.40
2019-05-23T08:41:52.314Z,18.50
2019-05-23T08:46:56.747Z,18.60
2019-05-23T08:52:01.261Z,18.70
2019-05-23T08:57:06.884Z,18.70
2019-05-23T09:02:12.254Z,18.80
2019-05-23T09:07:17.060Z,19.00
2019-05-23T09:12:21.705Z,19.20
2019-05-23T09:17:26.037Z,19.30
2019-05-23T09:22:30.529Z,19.50
2019-05-23T09:27:34.907Z,19.70
2019-05-23T09:32:39.272Z,19.80
2019-05-23T09:37:43.930Z,19.80
2019-05-23T09:42:48.258Z,19.90
2019-05-23T09:47:52.794Z,20.00
2019-05-23T09:52:57.181Z,20.20
2019-05-23T09:58:01.571Z,20.20
2019-05-23T10:03:06.126Z,20.30
2019-05-23T10:08:13.930Z,20.30
2019-05-23T10:13:18.321Z,20.30
2019-05-23T10:18:22.752Z,20.30
2019-05-23T10:23:27.065Z,20.50
2019-05-23T10:28:31.499Z,20.80
2019-05-23T10:33:36.257Z,21.10
2019-05-23T10:38:40.951Z,21.10
2019-05-23T10:43:45.533Z,21.10
2019-05-23T10:48:50.116Z,21.10
2019-05-23T10:53:54.429Z,21.20
2019-05-23T10:58:58.749Z,21.40
2019-05-23T11:04:04.157Z,21.70
2019-05-23T11:09:09.203Z,21.90
2019-05-23T11:14:14.275Z,22.10
2019-05-23T11:19:18.908Z,22.10
2019-05-23T11:24:23.549Z,22.30
2019-05-23T11:29:28.245Z,22.50
2019-05-23T11:34:37.645Z,22.70
2019-05-23T11:39:49.311Z,22.90
2019-05-23T11:44:48.269Z,23.30
2019-05-23T11:49:54.079Z,23.60
2019-05-23T11:54:58.550Z,23.50
2019-05-23T12:00:06.685Z,23.90
2019-05-23T12:05:18.869Z,23.90
2019-05-23T12:10:24.379Z,24.20
2019-05-23T12:15:30.363Z,24.50
2019-05-23T12:20:34.856Z,24.60
2019-05-23T12:25:40.850Z,24.30
2019-05-23T12:30:45.575Z,24.00
2019-05-23T12:35:50.620Z,24.10
2019-05-23T12:40:56.039Z,24.10
2019-05-23T12:46:03.980Z,24.30
2019-05-23T12:51:09.291Z,24.40
2019-05-23T12:56:13.736Z,24.60
2019-05-23T13:01:18.899Z,25.00
2019-05-23T13:06:23.400Z,25.20
2019-05-23T13:11:27.949Z,25.30
2019-05-23T13:16:32.302Z,24.90
2019-05-23T13:21:36.616Z,25.10
2019-05-23T13:26:41.354Z,25.30
2019-05-23T13:31:45.758Z,25.20
2019-05-23T13:36:50.129Z,25.00
2019-05-23T13:41:54.646Z,24.90
2019-05-23T13:46:59.188Z,24.90
2019-05-23T13:52:03.516Z,25.10
2019-05-23T13:57:08.953Z,25.10
2019-05-23T14:02:13.328Z,25.00
2019-05-23T14:07:18.973Z,25.00
2019-05-23T14:12:23.818Z,25.00
2019-05-23T14:17:33.859Z,24.80
2019-05-23T14:22:42.277Z,24.50
2019-05-23T14:28:09.009Z,24.40
2019-05-23T14:33:30.975Z,24.50
2019-05-23T14:38:36.511Z,24.70
2019-05-23T14:43:41.144Z,25.00
2019-05-23T14:49:02.653Z,25.20
2019-05-23T14:54:11.526Z,25.20
2019-05-23T14:59:16.063Z,25.00
2019-05-23T15:04:21.621Z,25.10
2019-05-23T15:09:26.623Z,25.30
2019-05-23T15:14:34.848Z,25.10
2019-05-23T15:19:44.896Z,25.00
2019-05-23T15:24:45.735Z,25.00
2019-05-23T15:29:53.251Z,24.90
2019-05-23T15:34:57.591Z,24.80
2019-05-23T15:40:02.003Z,24.80
2019-05-23T15:45:06.814Z,24.80
2019-05-23T15:50:14.074Z,24.70
2019-05-23T15:55:30.503Z,24.70
2019-05-23T16:00:57.601Z,24.70
2019-05-23T16:06:03.083Z,24.80
2019-05-23T16:11:07.612Z,24.60
2019-05-23T16:16:11.924Z,24.50
2019-05-23T16:21:17.069Z,24.70
2019-05-23T16:26:21.452Z,24.70
2019-05-23T16:31:25.760Z,24.80
2019-05-23T16:36:30.026Z,24.80
2019-05-23T16:41:34.375Z,24.80
2019-05-23T16:46:39.208Z,24.80
2019-05-23T16:51:43.578Z,24.60
2019-05-23T16:56:58.233Z,24.40
2019-05-23T17:02:12.563Z,24.40
2019-05-23T17:07:51.116Z,24.30
2019-05-23T17:13:06.172Z,24.20
2019-05-23T17:18:32.945Z,24.20
2019-05-23T17:23:54.436Z,24.10
2019-05-23T17:28:59.005Z,24.00
2019-05-23T17:34:04.038Z,24.00
2019-05-23T17:39:14.645Z,24.00
2019-05-23T17:44:18.516Z,24.00
2019-05-23T17:49:23.731Z,24.00
2019-05-23T17:54:28.261Z,24.00
2019-05-23T17:59:32.889Z,24.00
2019-05-23T18:04:37.760Z,23.90
2019-05-23T18:09:42.407Z,23.80
2019-05-23T18:14:47.079Z,23.80
2019-05-23T18:19:51.734Z,23.80
2019-05-23T18:24:59.631Z,23.80
2019-05-23T18:30:08.823Z,23.80
2019-05-23T18:35:20.591Z,23.80
2019-05-23T18:40:27.251Z,23.70
2019-05-23T18:45:33.223Z,23.60
2019-05-23T18:50:38.091Z,23.60
2019-05-23T18:55:42.475Z,23.50
2019-05-23T19:01:08.097Z,23.40
2019-05-23T19:06:12.548Z,23.20
2019-05-23T19:11:21.160Z,22.90
2019-05-23T19:16:23.706Z,22.80
2019-05-23T19:21:29.625Z,22.60
2019-05-23T19:26:34.457Z,22.40
2019-05-23T19:31:39.363Z,22.30
2019-05-23T19:36:43.801Z,22.10
2019-05-23T19:41:48.187Z,22.00
2019-05-23T19:46:52.705Z,21.90
2019-05-23T19:52:17.185Z,22.00
2019-05-23T19:57:21.992Z,22.00
2019-05-23T20:02:48.351Z,22.00
2019-05-23T20:07:52.815Z,21.80
2019-05-23T20:12:57.412Z,21.70
2019-05-23T20:18:01.860Z,21.70
2019-05-23T20:23:06.654Z,21.50
2019-05-23T20:28:11.273Z,21.50
2019-05-23T20:33:16.024Z,21.40
2019-05-23T20:38:21.316Z,21.40
2019-05-23T20:43:25.779Z,21.40
2019-05-23T20:48:30.514Z,21.50
2019-05-23T20:53:39.479Z,21.50
2019-05-23T20:58:43.892Z,21.40
2019-05-23T21:03:49.515Z,21.40
2019-05-23T21:08:54.073Z,21.30
2019-05-23T21:13:58.443Z,21.20
2019-05-23T21:19:02.747Z,21.10
2019-05-23T21:24:07.165Z,21.00
